KMKC/MKC METAR and TAF weather

Enter ICAO airport designator
Station Type Date Time Source
KMKC METAR 2021/05/12 01:54 UTC NOAA

KMKC 120154Z 07005KT 9SM OVC085 14/05 A3029 RMK AO2 SLP255 T01390050


Station Type Date Time Source
KMKC Decoded METAR 2021/05/12 01:54 UTC NOAA

KANSAS CITY DOWNTOWN AIRPORT , MO, United States (KMKC) 39-07N 094-36W 227M
May 11, 2021 - 09:54 PM EDT / 2021.05.12 0154 UTC
Wind: from the ENE (070 degrees) at 6 MPH (5 KT):0
Visibility: 9 mile(s):0
Sky conditions: overcast
Temperature: 57.0 F (13.9 C)
Dew Point: 41.0 F (5.0 C)
Relative Humidity: 54%
Pressure (altimeter): 30.29 in. Hg (1025 hPa)
ob: KMKC 120154Z 07005KT 9SM OVC085 14/05 A3029 RMK AO2 SLP255 T01390050
cycle: 2

Station Type Date Time Source
KMKC TAF 2021/05/11 18:28 UTC NOAA

TAF KMKC 111726Z 1118/1218 09010KT P6SM BKN060
FM120600 06007KT P6SM SCT050 BKN100

Example: see airport list